Time;durP1;ratioP1;P1;durP2;ratioP2;P2;SDS_P1;SDS_P2;PMS_P1;PMS_P2;Temp;Humidity;BMP_temperature;BMP_pressure;BME280_temperature;BME280_humidity;BME280_pressure;Samples;Min_cycle;Max_cycle;Signal;HPM_P1;HPM_P2
2021/07/07 00:04:34;;;;;;;5.37;2.70;;;14.80;99.90;;;;;;20973125;28;20384;-76
2021/07/07 00:14:35;;;;;;;7.50;3.43;;;14.60;99.90;;;;;;20990367;28;20032;-76
2021/07/07 00:24:36;;;;;;;9.93;3.20;;;14.60;99.90;;;;;;20989531;28;20113;-76
2021/07/07 00:34:37;;;;;;;6.73;2.50;;;14.60;99.90;;;;;;20971200;28;20051;-76
2021/07/07 00:44:38;;;;;;;5.83;2.50;;;14.70;99.90;;;;;;20999776;28;20033;-76
2021/07/07 00:54:39;;;;;;;5.83;2.60;;;14.70;99.90;;;;;;21004180;28;20035;-75
2021/07/07 01:04:40;;;;;;;10.53;3.10;;;14.60;99.90;;;;;;21003581;28;20437;-75
2021/07/07 01:14:41;;;;;;;3.77;2.83;;;14.60;99.90;;;;;;21002657;28;20028;-76
2021/07/07 01:24:42;;;;;;;4.90;3.87;;;14.50;99.90;;;;;;21001855;28;20030;-76
2021/07/07 01:34:43;;;;;;;7.13;4.87;;;14.50;99.90;;;;;;21000951;28;20506;-76
2021/07/07 01:44:44;;;;;;;7.27;4.83;;;14.50;99.90;;;;;;21000261;28;20438;-76
2021/07/07 01:54:44;;;;;;;9.63;6.47;;;14.60;99.90;;;;;;20999004;28;20398;-76
2021/07/07 02:04:45;;;;;;;10.37;5.83;;;14.60;99.90;;;;;;20980793;28;20035;-76
2021/07/07 02:14:46;;;;;;;7.50;4.97;;;14.70;99.90;;;;;;20998082;28;20064;-75
2021/07/07 02:24:47;;;;;;;8.43;4.57;;;14.80;99.90;;;;;;20997201;28;20052;-76
2021/07/07 02:34:48;;;;;;;5.67;4.07;;;14.80;99.90;;;;;;20996369;28;20025;-75
2021/07/07 02:44:49;;;;;;;6.63;4.43;;;14.80;99.90;;;;;;20996197;28;20024;-76
2021/07/07 02:54:50;;;;;;;7.97;4.37;;;14.70;99.90;;;;;;21007475;28;20028;-77
2021/07/07 03:04:51;;;;;;;5.57;4.40;;;14.70;99.90;;;;;;20986309;28;20126;-76
2021/07/07 03:14:53;;;;;;;8.60;4.13;;;14.70;99.90;;;;;;20990163;28;20024;-77
2021/07/07 03:24:54;;;;;;;7.32;4.57;;;14.80;99.90;;;;;;21005155;28;20032;-76
2021/07/07 03:34:55;;;;;;;4.67;3.50;;;14.70;99.90;;;;;;20966837;28;20040;-77
2021/07/07 03:44:56;;;;;;;11.20;5.97;;;14.80;99.90;;;;;;21001376;28;20037;-77
2021/07/07 03:54:57;;;;;;;13.05;6.63;;;14.70;99.90;;;;;;21003935;28;20388;-77
2021/07/07 04:04:58;;;;;;;9.77;5.80;;;14.70;99.90;;;;;;20986698;28;20060;-77
2021/07/07 04:14:59;;;;;;;11.33;7.30;;;14.70;99.90;;;;;;21003934;28;20039;-77
2021/07/07 04:25:00;;;;;;;10.27;5.60;;;14.60;99.90;;;;;;21019687;28;20412;-77
2021/07/07 04:35:01;;;;;;;29.07;8.50;;;14.60;99.90;;;;;;21001554;28;20037;-77
2021/07/07 04:45:04;;;;;;;20.20;9.90;;;14.60;99.90;;;;;;21017740;28;20050;-77
2021/07/07 04:55:07;;;;;;;13.18;8.13;;;14.60;99.90;;;;;;20980367;28;20415;-77
2021/07/07 05:05:12;;;;;;;13.27;8.45;;;14.50;99.90;;;;;;20992231;28;20032;-76
2021/07/07 05:15:13;;;;;;;9.57;6.63;;;14.50;99.90;;;;;;20991487;28;20574;-77
2021/07/07 05:25:16;;;;;;;11.33;4.80;;;14.60;99.90;;;;;;21013028;28;20036;-76
2021/07/07 05:35:17;;;;;;;7.45;4.43;;;14.60;99.90;;;;;;20992179;28;20050;-77
2021/07/07 05:45:24;;;;;;;5.23;3.53;;;14.60;99.90;;;;;;20991347;28;20514;-77
2021/07/07 05:55:25;;;;;;;9.10;4.88;;;14.70;99.90;;;;;;21011715;28;20028;-77
2021/07/07 06:05:27;;;;;;;8.83;4.93;;;14.70;99.90;;;;;;21009161;28;20071;-76
2021/07/07 06:15:28;;;;;;;11.45;5.47;;;14.80;99.90;;;;;;20996734;28;20024;-77
2021/07/07 06:25:29;;;;;;;5.50;3.13;;;14.80;99.90;;;;;;21009943;28;20035;-77
2021/07/07 06:35:31;;;;;;;6.27;3.00;;;14.90;99.90;;;;;;21007145;28;20021;-77
2021/07/07 06:45:37;;;;;;;3.28;2.28;;;15.00;99.90;;;;;;21007114;28;20024;-77
2021/07/07 06:55:38;;;;;;;15.63;5.38;;;15.00;99.90;;;;;;21001605;28;20103;-77
2021/07/07 07:05:39;;;;;;;12.00;5.97;;;15.10;99.90;;;;;;21003420;28;20028;-76
2021/07/07 07:15:41;;;;;;;7.80;4.80;;;14.90;99.90;;;;;;20991957;28;20459;-77
2021/07/07 07:25:42;;;;;;;3.53;2.08;;;15.00;99.90;;;;;;20990925;28;20525;-77
2021/07/07 07:35:43;;;;;;;9.27;4.73;;;14.90;99.90;;;;;;20994105;28;20426;-77
2021/07/07 07:45:44;;;;;;;9.50;5.23;;;15.10;99.90;;;;;;21006230;28;20024;-77
2021/07/07 07:55:45;;;;;;;8.53;4.30;;;15.50;99.90;;;;;;20998657;28;20039;-77
2021/07/07 08:05:46;;;;;;;8.13;3.33;;;15.60;99.90;;;;;;20980685;28;20029;-76
2021/07/07 08:15:47;;;;;;;5.10;3.23;;;15.60;99.90;;;;;;20996494;28;20427;-76
2021/07/07 08:25:49;;;;;;;4.00;2.93;;;15.60;99.90;;;;;;20976819;28;20048;-76
2021/07/07 08:35:50;;;;;;;4.60;3.33;;;15.60;99.90;;;;;;20975453;28;20032;-77
2021/07/07 08:45:54;;;;;;;7.87;3.23;;;15.80;99.90;;;;;;20976598;28;20035;-76
2021/07/07 08:55:57;;;;;;;8.95;2.90;;;16.10;99.90;;;;;;21005196;28;20119;-77
2021/07/07 09:06:03;;;;;;;4.07;2.08;;;16.30;99.90;;;;;;21006030;28;20122;-77
2021/07/07 09:16:13;;;;;;;3.90;1.60;;;16.60;99.90;;;;;;21022828;28;20035;-76
2021/07/07 09:26:14;;;;;;;2.45;1.80;;;16.50;99.90;;;;;;21018630;28;20036;-77
2021/07/07 09:36:25;;;;;;;3.10;1.33;;;16.90;99.90;;;;;;21001018;28;20033;-77
2021/07/07 09:46:26;;;;;;;1.83;1.10;;;16.90;99.90;;;;;;21029094;28;20040;-76
2021/07/07 09:56:27;;;;;;;1.87;1.13;;;16.90;99.90;;;;;;21033570;28;20088;-77
2021/07/07 10:06:28;;;;;;;2.03;1.30;;;17.00;99.90;;;;;;21046945;28;20053;-77
2021/07/07 10:16:31;;;;;;;3.17;2.00;;;17.00;99.90;;;;;;21045372;28;20032;-77
2021/07/07 10:26:33;;;;;;;3.20;1.80;;;17.30;99.90;;;;;;21041226;28;20459;-77
2021/07/07 10:36:34;;;;;;;2.25;1.60;;;17.80;99.90;;;;;;21046331;28;20032;-77
2021/07/07 10:46:54;;;;;;;5.00;1.90;;;17.90;99.90;;;;;;21057832;28;20152;-77
2021/07/07 10:56:55;;;;;;;5.28;2.47;;;17.60;99.90;;;;;;21058140;28;20024;-77
2021/07/07 11:06:56;;;;;;;2.20;1.23;;;17.90;99.90;;;;;;21061860;28;20040;-78
2021/07/07 11:17:00;;;;;;;2.97;1.40;;;19.00;99.90;;;;;;21059368;28;20039;-78
2021/07/07 11:27:05;;;;;;;4.53;1.50;;;19.50;99.90;;;;;;21041543;28;20034;-78
2021/07/07 11:37:06;;;;;;;3.97;1.60;;;19.80;99.90;;;;;;21028577;28;20071;-77
2021/07/07 11:47:07;;;;;;;2.33;1.20;;;20.00;99.90;;;;;;21016704;28;20075;-78
2021/07/07 11:57:08;;;;;;;;;;;21.00;99.90;;;;;;21023049;28;20040;-78
2021/07/07 12:07:10;;;;;;;1.80;0.90;;;20.70;99.90;;;;;;21042628;28;19935;-77
2021/07/07 12:17:13;;;;;;;3.13;0.93;;;20.60;99.90;;;;;;21045451;28;20039;-76
2021/07/07 12:27:18;;;;;;;1.40;0.90;;;21.00;99.90;;;;;;21028048;28;20044;-77
2021/07/07 12:37:19;;;;;;;0.68;0.63;;;20.70;99.90;;;;;;21028880;28;20037;-76
2021/07/07 12:47:20;;;;;;;2.10;0.70;;;21.20;99.90;;;;;;21015867;28;20060;-77
2021/07/07 12:57:22;;;;;;;;;;;21.80;99.90;;;;;;21031037;28;20029;-77
2021/07/07 13:07:22;;;;;;;0.85;0.70;;;21.30;99.90;;;;;;21043181;28;19991;-77
2021/07/07 13:17:23;;;;;;;1.90;0.50;;;21.80;99.90;;;;;;21019447;28;20088;-77
2021/07/07 13:27:33;;;;;;;1.27;0.73;;;22.60;99.90;;;;;;21021261;28;20028;-76
2021/07/07 13:37:40;;;;;;;2.03;0.80;;;22.50;99.90;;;;;;21016506;28;20037;-77
2021/07/07 13:47:41;;;;;;;2.25;0.88;;;21.70;99.90;;;;;;21048963;28;20032;-77
2021/07/07 13:57:42;;;;;;;4.70;0.50;;;21.80;99.90;;;;;;21010869;28;20025;-76
2021/07/07 14:07:44;;;;;;;0.60;0.50;;;21.40;99.90;;;;;;21030898;28;20055;-76
2021/07/07 14:17:45;;;;;;;2.15;0.50;;;22.40;99.90;;;;;;21039026;28;20111;-77
2021/07/07 14:27:46;;;;;;;0.30;0.30;;;22.90;99.90;;;;;;21031949;28;20036;-78
2021/07/07 14:37:47;;;;;;;0.97;0.50;;;23.70;99.90;;;;;;21036654;28;20028;-77
2021/07/07 14:47:48;;;;;;;1.10;0.63;;;24.30;99.90;;;;;;21032547;28;20040;-75
2021/07/07 14:57:49;;;;;;;3.00;0.50;;;24.30;99.90;;;;;;21035935;28;20037;-77
2021/07/07 15:07:50;;;;;;;0.60;0.37;;;23.30;99.90;;;;;;21039562;28;20033;-77
2021/07/07 15:17:51;;;;;;;1.08;0.30;;;23.60;99.90;;;;;;21018937;28;20092;-76
2021/07/07 15:27:52;;;;;;;0.80;0.40;;;23.20;99.90;;;;;;21040271;28;20043;-76
2021/07/07 15:37:53;;;;;;;2.15;0.30;;;23.90;99.90;;;;;;21048066;28;20029;-76
2021/07/07 15:47:54;;;;;;;0.30;0.30;;;23.80;99.90;;;;;;21055919;28;20035;-77
2021/07/07 15:57:54;;;;;;;2.30;0.40;;;23.60;99.90;;;;;;21031819;28;20020;-75
2021/07/07 16:07:55;;;;;;;0.97;0.40;;;23.30;99.90;;;;;;21021910;28;20041;-78
2021/07/07 16:17:56;;;;;;;0.77;0.30;;;23.10;99.90;;;;;;21024191;28;20032;-76
2021/07/07 16:27:57;;;;;;;;;;;22.90;99.90;;;;;;21009549;28;20032;-78
2021/07/07 16:37:59;;;;;;;0.67;0.33;;;22.30;99.90;;;;;;20989856;28;20416;-79
2021/07/07 16:48:00;;;;;;;1.00;0.40;;;22.50;99.90;;;;;;20988469;28;20025;-78
2021/07/07 16:58:01;;;;;;;1.73;0.40;;;22.80;99.90;;;;;;20971425;28;20540;-78
2021/07/07 17:08:03;;;;;;;0.88;0.40;;;22.70;99.90;;;;;;20990131;28;20032;-78
2021/07/07 17:18:04;;;;;;;1.48;0.80;;;22.50;99.90;;;;;;20987262;28;20115;-77
2021/07/07 17:28:05;;;;;;;1.53;0.60;;;22.00;99.90;;;;;;21000975;28;20051;-78
2021/07/07 17:38:06;;;;;;;1.43;0.40;;;21.80;99.90;;;;;;21004408;28;20124;-78
2021/07/07 17:48:08;;;;;;;2.10;0.47;;;22.40;99.90;;;;;;20999644;28;20490;-77
2021/07/07 17:58:09;;;;;;;1.70;0.50;;;22.30;99.90;;;;;;20972514;28;20098;-77
2021/07/07 18:08:10;;;;;;;1.30;0.90;;;22.70;99.90;;;;;;20972426;28;20033;-76
2021/07/07 18:18:11;;;;;;;1.48;0.70;;;22.70;99.90;;;;;;20988875;28;20033;-76
2021/07/07 18:28:18;;;;;;;3.08;0.40;;;23.20;99.90;;;;;;20962090;28;20048;-76
2021/07/07 18:38:18;;;;;;;1.02;0.30;;;24.50;99.90;;;;;;20989260;28;20063;-77
2021/07/07 18:48:19;;;;;;;4.03;0.60;;;22.10;99.90;;;;;;20965151;28;20127;-76
2021/07/07 18:58:20;;;;;;;1.00;0.60;;;20.80;99.90;;;;;;20981944;28;20059;-77
2021/07/07 19:08:21;;;;;;;2.80;0.50;;;20.10;99.90;;;;;;20964540;28;20644;-77
2021/07/07 19:18:22;;;;;;;0.63;0.50;;;19.50;99.90;;;;;;20981623;28;20709;-77
2021/07/07 19:28:23;;;;;;;1.10;0.50;;;19.30;99.90;;;;;;20884089;28;20045;-77
2021/07/07 19:38:24;;;;;;;0.60;0.50;;;19.00;99.90;;;;;;20863482;28;20045;-76
2021/07/07 19:48:26;;;;;;;1.43;0.90;;;18.40;99.90;;;;;;20865290;28;20512;-79
2021/07/07 19:58:29;;;;;;;1.67;1.10;;;18.10;99.90;;;;;;20963601;28;20051;-77
2021/07/07 20:08:30;;;;;;;5.05;0.85;;;18.00;99.90;;;;;;20964641;28;20282;-78
2021/07/07 20:18:31;;;;;;;1.50;1.00;;;17.50;99.90;;;;;;20965391;28;20135;-78
2021/07/07 20:28:32;;;;;;;2.10;0.93;;;17.70;99.90;;;;;;20977685;28;20056;-76
2021/07/07 20:38:33;;;;;;;4.63;0.97;;;17.60;99.90;;;;;;20937737;28;20055;-76
2021/07/07 20:48:34;;;;;;;4.97;1.23;;;17.20;99.90;;;;;;20973457;28;20032;-77
2021/07/07 20:58:35;;;;;;;1.80;0.97;;;17.40;99.90;;;;;;20993545;28;20032;-76
2021/07/07 21:08:36;;;;;;;4.53;1.30;;;17.50;99.90;;;;;;20985700;28;20028;-77
2021/07/07 21:18:37;;;;;;;5.20;2.67;;;17.60;99.90;;;;;;21000457;28;20028;-78
2021/07/07 21:28:38;;;;;;;8.23;3.77;;;17.70;99.90;;;;;;20999669;28;20032;-77
2021/07/07 21:38:39;;;;;;;13.77;6.37;;;17.60;99.90;;;;;;21000371;28;20435;-76
2021/07/07 21:48:40;;;;;;;15.60;5.93;;;17.00;99.90;;;;;;20990438;28;20041;-77
2021/07/07 21:58:41;;;;;;;15.90;6.00;;;16.90;99.90;;;;;;20978175;28;20086;-77
2021/07/07 22:08:42;;;;;;;20.17;7.17;;;16.90;99.90;;;;;;20975199;28;20035;-77
2021/07/07 22:18:43;;;;;;;14.57;5.53;;;16.80;99.90;;;;;;20994161;28;20021;-77
2021/07/07 22:28:44;;;;;;;10.30;4.47;;;16.90;99.90;;;;;;20994153;28;20024;-76
2021/07/07 22:38:45;;;;;;;13.97;4.20;;;16.80;99.90;;;;;;20991973;28;20525;-76
2021/07/07 22:48:47;;;;;;;10.73;5.10;;;16.80;99.90;;;;;;20993392;28;20020;-77
2021/07/07 22:58:48;;;;;;;14.65;5.10;;;16.70;99.90;;;;;;20995728;28;20020;-77
2021/07/07 23:08:50;;;;;;;8.67;5.17;;;16.70;99.90;;;;;;20992567;28;20028;-77
2021/07/07 23:18:50;;;;;;;15.07;7.07;;;16.60;99.90;;;;;;20992081;28;20028;-77
2021/07/07 23:28:52;;;;;;;14.38;6.47;;;16.40;99.90;;;;;;20981035;28;20479;-77
2021/07/07 23:38:53;;;;;;;15.30;6.20;;;16.50;99.90;;;;;;20999854;28;20090;-77
2021/07/07 23:48:54;;;;;;;18.47;6.00;;;16.60;99.90;;;;;;20994836;28;20115;-77
2021/07/07 23:58:55;;;;;;;15.70;6.87;;;16.60;99.90;;;;;;20978110;28;20123;-76
